createdAt,value
2023-04-23T00:00:23.469Z,100444.13
2023-04-23T00:04:38.118Z,100457.69
2023-04-23T00:08:53.156Z,100465.50
2023-04-23T00:13:05.169Z,100439.53
2023-04-23T00:17:17.066Z,100460.91
2023-04-23T00:21:29.776Z,100448.00
2023-04-23T00:25:41.580Z,100444.28
2023-04-23T00:29:53.358Z,100431.66
2023-04-23T00:34:05.175Z,100438.66
2023-04-23T00:38:17.006Z,100447.75
2023-04-23T00:42:29.267Z,100427.25
2023-04-23T00:46:42.046Z,100414.75
2023-04-23T00:51:03.448Z,100417.06
2023-04-23T00:55:15.152Z,100419.34
2023-04-23T00:59:27.178Z,100422.47
2023-04-23T01:03:40.855Z,100426.41
2023-04-23T01:07:53.357Z,100408.09
2023-04-23T01:12:09.917Z,100422.53
2023-04-23T01:16:22.220Z,100428.13
2023-04-23T01:20:35.459Z,100410.31
2023-04-23T01:24:47.471Z,100409.00
2023-04-23T01:29:00.005Z,100386.78
2023-04-23T01:33:12.268Z,100390.09
2023-04-23T01:37:24.893Z,100391.00
2023-04-23T01:41:37.492Z,100378.53
2023-04-23T01:45:49.671Z,100367.00
2023-04-23T01:50:01.760Z,100367.16
2023-04-23T01:54:13.861Z,100387.13
2023-04-23T01:58:25.980Z,100366.41
2023-04-23T02:02:40.479Z,100379.53
2023-04-23T02:06:52.432Z,100360.31
2023-04-23T02:11:05.587Z,100373.88
2023-04-23T02:15:17.963Z,100367.81
2023-04-23T02:19:31.827Z,100352.19
2023-04-23T02:23:43.608Z,100345.94
2023-04-23T02:27:55.316Z,100376.28
2023-04-23T02:32:07.260Z,100367.44
2023-04-23T02:36:19.009Z,100371.91
2023-04-23T02:40:31.397Z,100349.00
2023-04-23T02:44:43.547Z,100349.97
2023-04-23T02:48:55.302Z,100361.50
2023-04-23T02:53:07.992Z,100357.41
2023-04-23T02:57:20.123Z,100342.44
2023-04-23T03:01:32.457Z,100341.84
2023-04-23T03:05:45.141Z,100353.09
2023-04-23T03:09:56.825Z,100320.63
2023-04-23T03:14:08.657Z,100334.19
2023-04-23T03:18:20.859Z,100348.19
2023-04-23T03:22:36.263Z,100354.19
2023-04-23T03:26:48.025Z,100354.44
2023-04-23T03:31:00.408Z,100345.88
2023-04-23T03:35:12.389Z,100329.16
2023-04-23T03:39:28.579Z,100335.88
2023-04-23T03:43:40.631Z,100326.25
2023-04-23T03:48:02.056Z,100320.50
2023-04-23T03:52:14.529Z,100349.75
2023-04-23T03:56:27.319Z,100334.56
2023-04-23T04:00:56.182Z,100322.22
2023-04-23T04:05:09.871Z,100303.31
2023-04-23T04:09:22.190Z,100311.06
2023-04-23T04:13:33.977Z,100333.81
2023-04-23T04:17:46.123Z,100323.41
2023-04-23T04:21:57.878Z,100338.13
2023-04-23T04:26:09.667Z,100313.06
2023-04-23T04:30:21.669Z,100323.03
2023-04-23T04:34:33.563Z,100327.34
2023-04-23T04:38:45.255Z,100331.50
2023-04-23T04:42:57.460Z,100324.00
2023-04-23T04:47:09.371Z,100339.25
2023-04-23T04:51:46.267Z,100342.47
2023-04-23T04:55:57.894Z,100330.03
2023-04-23T05:00:29.577Z,100324.97
2023-04-23T05:04:41.485Z,100318.00
2023-04-23T05:08:53.365Z,100322.94
2023-04-23T05:13:05.082Z,100337.78
2023-04-23T05:17:16.884Z,100331.81
2023-04-23T05:21:28.667Z,100330.19
2023-04-23T05:25:41.240Z,100334.19
2023-04-23T05:29:52.990Z,100312.22
2023-04-23T05:34:04.635Z,100298.69
2023-04-23T05:38:16.426Z,100337.47
2023-04-23T05:42:28.473Z,100332.91
2023-04-23T05:46:40.201Z,100340.88
2023-04-23T05:50:51.970Z,100349.66
2023-04-23T05:55:04.005Z,100351.09
2023-04-23T05:59:15.683Z,100338.66
2023-04-23T06:03:27.569Z,100329.50
2023-04-23T06:07:41.229Z,100316.91
2023-04-23T06:11:53.512Z,100316.94
2023-04-23T06:16:05.444Z,100332.41
2023-04-23T06:20:17.267Z,100319.94
2023-04-23T06:24:29.000Z,100328.28
2023-04-23T06:28:42.894Z,100327.44
2023-04-23T06:33:20.805Z,100323.56
2023-04-23T06:37:32.692Z,100331.97
2023-04-23T06:41:44.434Z,100301.59
2023-04-23T06:46:10.772Z,100299.56
2023-04-23T06:50:22.644Z,100302.06
2023-04-23T06:54:34.472Z,100296.38
2023-04-23T06:58:46.184Z,100300.84
2023-04-23T07:03:03.942Z,100295.25
2023-04-23T07:07:16.383Z,100314.88
2023-04-23T07:11:29.689Z,100307.31
2023-04-23T07:15:42.506Z,100294.72
2023-04-23T07:19:55.475Z,100288.53
2023-04-23T07:24:07.562Z,100288.25
2023-04-23T07:28:19.348Z,100287.91
2023-04-23T07:32:31.771Z,100271.03
2023-04-23T07:36:43.572Z,100276.00
2023-04-23T07:40:55.274Z,100283.47
2023-04-23T07:45:07.407Z,100284.09
2023-04-23T07:49:19.042Z,100282.09
2023-04-23T07:53:30.632Z,100278.47
2023-04-23T07:57:42.375Z,100282.78
2023-04-23T08:01:54.025Z,100264.69
2023-04-23T08:06:05.859Z,100277.59
2023-04-23T08:10:17.496Z,100263.09
2023-04-23T08:14:29.164Z,100272.31
2023-04-23T08:18:42.001Z,100268.22
2023-04-23T08:22:54.053Z,100260.47
2023-04-23T08:27:05.769Z,100251.63
2023-04-23T08:31:25.882Z,100266.34
2023-04-23T08:35:38.439Z,100262.56
2023-04-23T08:39:49.989Z,100268.53
2023-04-23T08:44:18.465Z,100252.06
2023-04-23T08:48:30.969Z,100245.06
2023-04-23T08:52:49.824Z,100254.03
2023-04-23T08:57:02.060Z,100257.38
2023-04-23T09:01:14.397Z,100242.06
2023-04-23T09:05:27.159Z,100248.41
2023-04-23T09:09:40.806Z,100244.22
2023-04-23T09:13:52.858Z,100242.75
2023-04-23T09:18:04.742Z,100239.00
2023-04-23T09:22:37.522Z,100242.31
2023-04-23T09:26:51.070Z,100240.03
2023-04-23T09:31:05.494Z,100225.91
2023-04-23T09:35:20.111Z,100226.28
2023-04-23T09:39:34.124Z,100212.88
2023-04-23T09:43:47.966Z,100213.00
2023-04-23T09:47:59.751Z,100219.56
2023-04-23T09:52:11.436Z,100215.91
2023-04-23T09:56:24.418Z,100207.13
2023-04-23T10:00:38.164Z,100215.81
2023-04-23T10:04:56.352Z,100216.66
2023-04-23T10:09:12.786Z,100217.53
2023-04-23T10:13:25.067Z,100210.06
2023-04-23T10:17:37.973Z,100210.69
2023-04-23T10:22:02.347Z,100198.31
2023-04-23T10:26:22.871Z,100201.09
2023-04-23T10:30:35.574Z,100197.34
2023-04-23T10:34:48.301Z,100189.13
2023-04-23T10:39:04.160Z,100186.44
2023-04-23T10:43:16.559Z,100184.06
2023-04-23T10:47:55.842Z,100195.53
2023-04-23T10:52:20.829Z,100172.56
2023-04-23T10:56:33.430Z,100172.41
2023-04-23T11:00:46.717Z,100173.22
2023-04-23T11:04:58.959Z,100166.47
2023-04-23T11:09:29.798Z,100153.44
2023-04-23T11:13:53.224Z,100149.38
2023-04-23T11:18:05.084Z,100139.59
2023-04-23T11:22:20.613Z,100133.19
2023-04-23T11:26:32.353Z,100130.66
2023-04-23T11:30:44.033Z,100133.38
2023-04-23T11:34:58.027Z,100115.53
2023-04-23T11:39:10.766Z,100113.97
2023-04-23T11:43:22.771Z,100097.00
2023-04-23T11:47:34.794Z,100095.81
2023-04-23T11:51:46.893Z,100082.06
2023-04-23T11:55:59.821Z,100058.00
2023-04-23T12:00:23.486Z,100058.06
2023-04-23T12:04:35.384Z,100069.78
2023-04-23T12:08:47.490Z,100063.50
2023-04-23T12:12:59.245Z,100030.84
2023-04-23T12:17:12.305Z,100053.97
2023-04-23T12:21:26.193Z,100041.78
2023-04-23T12:25:43.259Z,100014.28
2023-04-23T12:30:07.221Z,100009.19
2023-04-23T12:34:21.143Z,100002.19
2023-04-23T12:38:41.192Z,100029.00
2023-04-23T12:42:53.232Z,99997.34
2023-04-23T12:47:07.679Z,100012.00
2023-04-23T12:51:20.546Z,99993.63
2023-04-23T12:55:35.490Z,99961.81
2023-04-23T12:59:49.889Z,99984.28
2023-04-23T13:04:02.315Z,99958.19
2023-04-23T13:08:17.159Z,99947.72
2023-04-23T13:12:34.203Z,99982.06
2023-04-23T13:16:46.113Z,99958.84
2023-04-23T13:20:57.979Z,99950.00
2023-04-23T13:25:10.359Z,99960.66
2023-04-23T13:29:22.001Z,99936.50
2023-04-23T13:33:33.780Z,99937.31
2023-04-23T13:37:45.656Z,99918.81
2023-04-23T13:42:08.929Z,99893.78
2023-04-23T13:46:21.910Z,99913.75
2023-04-23T13:50:34.357Z,99907.84
2023-04-23T13:54:47.847Z,99899.47
2023-04-23T13:59:17.640Z,99865.81
2023-04-23T14:03:31.183Z,99898.50
2023-04-23T14:07:43.075Z,99894.94
2023-04-23T14:11:54.897Z,99855.34
2023-04-23T14:16:06.730Z,99857.22
2023-04-23T14:20:20.145Z,99869.94
2023-04-23T14:24:39.716Z,99875.19
2023-04-23T14:28:52.793Z,99846.59
2023-04-23T14:33:04.501Z,99849.13
2023-04-23T14:37:17.590Z,99827.66
2023-04-23T14:41:29.322Z,99839.44
2023-04-23T14:45:43.409Z,99860.63
2023-04-23T14:49:57.645Z,99851.81
2023-04-23T14:54:09.732Z,99829.22
2023-04-23T14:58:21.548Z,99856.56
2023-04-23T15:02:34.393Z,99809.03
2023-04-23T15:06:46.260Z,99847.06
2023-04-23T15:11:00.332Z,99855.38
2023-04-23T15:15:50.950Z,99848.13
2023-04-23T15:20:03.814Z,99912.72
2023-04-23T15:24:16.260Z,99894.72
2023-04-23T15:28:28.303Z,99914.09
2023-04-23T15:32:40.158Z,99905.25
2023-04-23T15:36:52.149Z,99909.53
2023-04-23T15:41:04.124Z,99910.16
2023-04-23T15:45:17.120Z,99902.69
2023-04-23T15:49:32.012Z,99906.78
2023-04-23T15:53:46.219Z,99887.63
2023-04-23T15:57:59.236Z,99903.09
2023-04-23T16:02:11.177Z,99888.00
2023-04-23T16:06:23.258Z,99861.59
2023-04-23T16:10:35.330Z,99893.53
2023-04-23T16:14:47.244Z,99900.81
2023-04-23T16:18:59.074Z,99875.41
2023-04-23T16:23:10.944Z,99892.69
2023-04-23T16:27:23.661Z,99881.88
2023-04-23T16:31:35.931Z,99853.69
2023-04-23T16:35:47.920Z,99838.19
2023-04-23T16:40:00.965Z,99824.16
2023-04-23T16:44:12.690Z,99808.03
2023-04-23T16:48:24.613Z,99786.38
2023-04-23T16:52:36.284Z,99785.25
2023-04-23T16:57:43.464Z,99786.88
2023-04-23T17:01:55.185Z,99760.00
2023-04-23T17:06:33.255Z,99749.28
2023-04-23T17:10:45.001Z,99737.00
2023-04-23T17:14:56.681Z,99726.75
2023-04-23T17:19:08.367Z,99694.41
2023-04-23T17:23:20.030Z,99676.13
2023-04-23T17:27:31.819Z,99683.19
2023-04-23T17:31:43.608Z,99677.34
2023-04-23T17:35:55.926Z,99684.94
2023-04-23T17:40:09.684Z,99668.47
2023-04-23T17:44:21.397Z,99659.59
2023-04-23T17:48:33.048Z,99637.25
2023-04-23T17:52:45.188Z,99657.78
2023-04-23T17:56:56.913Z,99625.69
2023-04-23T18:01:09.507Z,99602.00
2023-04-23T18:05:21.259Z,99622.44
2023-04-23T18:09:32.991Z,99617.34
2023-04-23T18:13:44.784Z,99619.28
2023-04-23T18:17:56.522Z,99600.44
2023-04-23T18:22:08.318Z,99593.16
2023-04-23T18:26:20.122Z,99596.38
2023-04-23T18:30:31.876Z,99576.97
2023-04-23T18:34:43.600Z,99585.31
2023-04-23T18:38:55.280Z,99591.53
2023-04-23T18:43:06.969Z,99573.53
2023-04-23T18:47:19.496Z,99578.66
2023-04-23T18:51:38.347Z,99574.63
2023-04-23T18:55:50.106Z,99560.63
2023-04-23T19:00:01.771Z,99586.84
2023-04-23T19:04:14.204Z,99576.84
2023-04-23T19:08:28.989Z,99573.38
2023-04-23T19:12:40.789Z,99573.94
2023-04-23T19:16:52.509Z,99556.94
2023-04-23T19:21:06.991Z,99570.69
2023-04-23T19:25:18.748Z,99556.91
2023-04-23T19:29:30.487Z,99543.16
2023-04-23T19:33:45.332Z,99535.88
2023-04-23T19:37:57.027Z,99535.34
2023-04-23T19:42:08.671Z,99524.81
2023-04-23T19:46:20.373Z,99511.06
2023-04-23T19:50:32.288Z,99510.53
2023-04-23T19:54:48.907Z,99510.78
2023-04-23T19:59:00.835Z,99491.94
2023-04-23T20:03:12.870Z,99523.22
2023-04-23T20:07:24.687Z,99531.84
2023-04-23T20:11:37.091Z,99527.53
2023-04-23T20:15:50.079Z,99511.34
2023-04-23T20:20:02.151Z,99506.72
2023-04-23T20:24:14.248Z,99491.63
2023-04-23T20:28:26.013Z,99488.66
2023-04-23T20:32:37.787Z,99470.31
2023-04-23T20:36:51.166Z,99473.28
2023-04-23T20:41:03.176Z,99470.56
2023-04-23T20:45:14.848Z,99476.22
2023-04-23T20:49:26.911Z,99472.94
2023-04-23T20:53:38.669Z,99472.13
2023-04-23T20:57:50.430Z,99454.66
2023-04-23T21:02:02.086Z,99448.66
2023-04-23T21:06:13.749Z,99451.06
2023-04-23T21:10:25.389Z,99440.81
2023-04-23T21:14:37.067Z,99436.53
2023-04-23T21:18:48.772Z,99426.56
2023-04-23T21:23:01.369Z,99439.22
2023-04-23T21:27:15.879Z,99401.53
2023-04-23T21:31:38.878Z,99403.69
2023-04-23T21:35:52.666Z,99423.38
2023-04-23T21:40:05.640Z,99386.97
2023-04-23T21:44:17.517Z,99405.56
2023-04-23T21:48:31.330Z,99369.09
2023-04-23T21:52:43.386Z,99412.47
2023-04-23T21:56:55.029Z,99416.72
2023-04-23T22:01:06.762Z,99408.06
2023-04-23T22:05:22.252Z,99429.06
2023-04-23T22:09:33.998Z,99433.53
2023-04-23T22:13:45.774Z,99423.50
2023-04-23T22:17:59.125Z,99405.31
2023-04-23T22:22:10.803Z,99429.63
2023-04-23T22:26:22.491Z,99454.56
2023-04-23T22:30:34.222Z,99438.22
2023-04-23T22:34:46.336Z,99445.22
2023-04-23T22:38:58.251Z,99471.88
2023-04-23T22:43:09.915Z,99486.88
2023-04-23T22:47:21.860Z,99473.44
2023-04-23T22:51:35.444Z,99486.06
2023-04-23T22:55:47.317Z,99487.50
2023-04-23T23:00:00.099Z,99497.50
2023-04-23T23:04:13.022Z,99504.81
2023-04-23T23:08:24.824Z,99494.63
2023-04-23T23:12:37.091Z,99506.72
2023-04-23T23:16:48.825Z,99527.94
2023-04-23T23:21:00.533Z,99513.63
2023-04-23T23:25:12.288Z,99492.63
2023-04-23T23:29:23.948Z,99492.06
2023-04-23T23:33:36.266Z,99518.00
2023-04-23T23:37:47.907Z,99520.44
2023-04-23T23:41:59.918Z,99517.19
2023-04-23T23:46:11.890Z,99537.50
2023-04-23T23:50:23.804Z,99521.56
2023-04-23T23:54:36.053Z,99539.63
2023-04-23T23:58:47.709Z,99533.19
